createdAt,value
2023-03-04T00:01:29.222Z,1.20
2023-03-04T00:03:56.901Z,1.20
2023-03-04T00:06:24.628Z,1.10
2023-03-04T00:08:52.518Z,1.10
2023-03-04T00:11:20.137Z,1.10
2023-03-04T00:13:47.781Z,1.18
2023-03-04T00:16:15.523Z,1.18
2023-03-04T00:18:43.246Z,1.20
2023-03-04T00:21:10.863Z,1.20
2023-03-04T00:23:41.247Z,1.20
2023-03-04T00:26:09.644Z,1.20
2023-03-04T00:28:37.380Z,1.10
2023-03-04T00:31:05.798Z,1.10
2023-03-04T00:33:33.859Z,1.10
2023-03-04T00:36:02.294Z,1.10
2023-03-04T00:38:30.824Z,1.10
2023-03-04T00:40:58.496Z,1.10
2023-03-04T00:43:26.147Z,1.10
2023-03-04T00:45:54.102Z,1.10
2023-03-04T00:48:21.864Z,1.10
2023-03-04T00:50:51.730Z,1.10
2023-03-04T00:53:20.466Z,1.10
2023-03-04T00:55:48.173Z,1.10
2023-03-04T00:58:15.892Z,1.10
2023-03-04T01:00:43.690Z,1.10
2023-03-04T01:03:11.363Z,1.00
2023-03-04T01:05:39.231Z,1.00
2023-03-04T01:08:07.058Z,1.00
2023-03-04T01:10:34.722Z,1.00
2023-03-04T01:13:02.469Z,1.00
2023-03-04T01:15:30.299Z,1.00
2023-03-04T01:17:58.004Z,1.00
2023-03-04T01:20:25.800Z,0.98
2023-03-04T01:22:53.470Z,1.00
2023-03-04T01:25:21.269Z,1.00
2023-03-04T01:27:48.928Z,1.00
2023-03-04T01:30:17.178Z,1.00
2023-03-04T01:32:44.867Z,1.00
2023-03-04T01:35:12.686Z,1.00
2023-03-04T01:37:40.565Z,1.00
2023-03-04T01:40:09.945Z,1.00
2023-03-04T01:42:37.708Z,1.00
2023-03-04T01:45:07.782Z,1.00
2023-03-04T01:47:36.203Z,0.98
2023-03-04T01:50:16.564Z,0.90
2023-03-04T01:52:44.376Z,0.90
2023-03-04T01:55:19.497Z,0.90
2023-03-04T01:57:49.985Z,0.90
2023-03-04T02:00:35.183Z,0.90
2023-03-04T02:03:12.570Z,1.00
2023-03-04T02:05:45.897Z,1.00
2023-03-04T02:08:16.024Z,0.92
2023-03-04T02:10:45.896Z,0.90
2023-03-04T02:13:15.497Z,0.90
2023-03-04T02:15:45.939Z,0.90
2023-03-04T02:18:24.922Z,0.88
2023-03-04T02:21:08.701Z,0.80
2023-03-04T02:24:04.276Z,0.80
2023-03-04T02:26:35.037Z,0.84
2023-03-04T02:29:04.610Z,0.86
2023-03-04T02:31:41.991Z,0.82
2023-03-04T02:34:18.291Z,0.80
2023-03-04T02:36:48.312Z,0.80
2023-03-04T02:39:40.389Z,0.80
2023-03-04T02:42:09.447Z,0.74
2023-03-04T02:44:46.392Z,0.70
2023-03-04T02:47:20.692Z,0.70
2023-03-04T02:49:48.823Z,0.70
2023-03-04T02:52:25.503Z,0.70
2023-03-04T02:54:53.286Z,0.70
2023-03-04T02:57:21.134Z,0.72
2023-03-04T02:59:48.863Z,0.80
2023-03-04T03:02:16.610Z,0.80
2023-03-04T03:04:44.401Z,0.80
2023-03-04T03:07:12.120Z,0.80
2023-03-04T03:09:40.048Z,0.82
2023-03-04T03:12:07.951Z,0.84
2023-03-04T03:14:35.707Z,0.80
2023-03-04T03:17:03.528Z,0.80
2023-03-04T03:19:31.414Z,0.80
2023-03-04T03:21:59.207Z,0.80
2023-03-04T03:24:27.076Z,0.84
2023-03-04T03:26:54.751Z,0.86
2023-03-04T03:29:22.471Z,0.90
2023-03-04T03:31:50.201Z,0.90
2023-03-04T03:34:17.933Z,0.90
2023-03-04T03:36:45.666Z,0.90
2023-03-04T03:39:15.585Z,0.92
2023-03-04T03:41:43.490Z,0.98
2023-03-04T03:44:11.200Z,0.92
2023-03-04T03:46:38.840Z,0.92
2023-03-04T03:49:06.500Z,0.90
2023-03-04T03:51:34.255Z,0.90
2023-03-04T03:54:01.971Z,0.98
2023-03-04T03:56:30.046Z,1.00
2023-03-04T03:58:57.939Z,1.00
2023-03-04T04:01:25.977Z,1.10
2023-03-04T04:03:53.743Z,1.10
2023-03-04T04:06:21.661Z,1.10
2023-03-04T04:08:49.289Z,1.08
2023-03-04T04:11:17.352Z,1.06
2023-03-04T04:13:45.039Z,1.00
2023-03-04T04:16:13.005Z,1.00
2023-03-04T04:18:40.943Z,1.06
2023-03-04T04:21:09.889Z,1.10
2023-03-04T04:23:37.623Z,1.10
2023-03-04T04:26:05.414Z,1.10
2023-03-04T04:28:33.584Z,1.10
2023-03-04T04:31:01.344Z,1.10
2023-03-04T04:33:29.020Z,1.10
2023-03-04T04:35:56.777Z,1.10
2023-03-04T04:38:25.158Z,1.10
2023-03-04T04:40:52.993Z,1.10
2023-03-04T04:43:20.702Z,1.02
2023-03-04T04:45:48.393Z,1.10
2023-03-04T04:48:16.116Z,1.10
2023-03-04T04:50:43.775Z,1.10
2023-03-04T04:53:13.635Z,1.10
2023-03-04T04:55:41.361Z,1.14
2023-03-04T04:58:09.066Z,1.18
2023-03-04T05:00:36.681Z,1.12
2023-03-04T05:03:04.442Z,1.10
2023-03-04T05:05:32.091Z,1.10
2023-03-04T05:07:59.802Z,1.10
2023-03-04T05:10:27.530Z,1.10
2023-03-04T05:12:55.223Z,1.10
2023-03-04T05:15:22.992Z,1.10
2023-03-04T05:17:50.690Z,1.10
2023-03-04T05:20:18.476Z,1.10
2023-03-04T05:22:46.127Z,1.10
2023-03-04T05:25:13.795Z,1.10
2023-03-04T05:27:41.519Z,1.10
2023-03-04T05:30:10.253Z,1.10
2023-03-04T05:32:38.033Z,1.10
2023-03-04T05:35:09.344Z,1.00
2023-03-04T05:37:37.164Z,1.00
2023-03-04T05:40:06.118Z,1.00
2023-03-04T05:42:33.778Z,1.10
2023-03-04T05:45:01.629Z,1.10
2023-03-04T05:47:29.333Z,1.10
2023-03-04T05:49:58.043Z,1.10
2023-03-04T05:52:25.789Z,1.10
2023-03-04T05:54:53.424Z,1.10
2023-03-04T05:57:21.116Z,1.10
2023-03-04T05:59:48.836Z,1.10
2023-03-04T06:02:16.620Z,1.10
2023-03-04T06:04:44.454Z,1.10
2023-03-04T06:07:12.176Z,1.10
2023-03-04T06:09:40.544Z,1.10
2023-03-04T06:12:08.362Z,1.12
2023-03-04T06:14:36.095Z,1.10
2023-03-04T06:17:04.393Z,1.20
2023-03-04T06:19:32.175Z,1.20
2023-03-04T06:22:00.203Z,1.20
2023-03-04T06:24:28.417Z,1.16
2023-03-04T06:26:56.301Z,1.18
2023-03-04T06:29:24.350Z,1.20
2023-03-04T06:31:52.325Z,1.20
2023-03-04T06:34:20.229Z,1.20
2023-03-04T06:36:48.301Z,1.20
2023-03-04T06:39:16.139Z,1.22
2023-03-04T06:41:43.860Z,1.26
2023-03-04T06:44:12.014Z,1.30
2023-03-04T06:46:39.897Z,1.30
2023-03-04T06:49:07.803Z,1.30
2023-03-04T06:51:36.287Z,1.30
2023-03-04T06:54:04.169Z,1.30
2023-03-04T06:56:32.149Z,1.30
2023-03-04T06:58:59.863Z,1.34
2023-03-04T07:01:29.087Z,1.40
2023-03-04T07:03:57.964Z,1.40
2023-03-04T07:06:28.931Z,1.40
2023-03-04T07:08:57.406Z,1.40
2023-03-04T07:11:25.686Z,1.40
2023-03-04T07:13:53.560Z,1.40
2023-03-04T07:16:23.502Z,1.40
2023-03-04T07:18:51.367Z,1.40
2023-03-04T07:21:19.620Z,1.40
2023-03-04T07:23:47.969Z,1.46
2023-03-04T07:26:16.778Z,1.48
2023-03-04T07:28:44.687Z,1.42
2023-03-04T07:31:20.768Z,1.40
2023-03-04T07:33:49.237Z,1.40
2023-03-04T07:36:19.684Z,1.40
2023-03-04T07:38:49.830Z,1.40
2023-03-04T07:41:18.813Z,1.40
2023-03-04T07:43:47.311Z,1.40
2023-03-04T07:46:15.882Z,1.50
2023-03-04T07:48:43.817Z,1.50
2023-03-04T07:51:18.886Z,1.50
2023-03-04T07:53:50.785Z,1.50
2023-03-04T07:56:23.769Z,1.54
2023-03-04T07:58:53.748Z,1.60
2023-03-04T08:01:27.419Z,1.56
2023-03-04T08:03:55.464Z,1.58
2023-03-04T08:06:24.183Z,1.60
2023-03-04T08:09:02.218Z,1.60
2023-03-04T08:11:31.861Z,1.60
2023-03-04T08:13:59.823Z,1.70
2023-03-04T08:16:28.339Z,1.70
2023-03-04T08:19:01.092Z,1.70
2023-03-04T08:21:29.155Z,1.70
2023-03-04T08:24:04.241Z,1.70
2023-03-04T08:26:40.672Z,1.70
2023-03-04T08:29:15.093Z,1.70
2023-03-04T08:31:46.290Z,1.70
2023-03-04T08:34:16.523Z,1.66
2023-03-04T08:36:44.405Z,1.70
2023-03-04T08:39:14.866Z,1.70
2023-03-04T08:41:43.088Z,1.70
2023-03-04T08:44:11.551Z,1.70
2023-03-04T08:46:42.457Z,1.70
2023-03-04T08:49:14.421Z,1.70
2023-03-04T08:51:42.859Z,1.70
2023-03-04T08:54:10.998Z,1.70
2023-03-04T08:56:40.442Z,1.70
2023-03-04T08:59:08.260Z,1.70
2023-03-04T09:01:36.127Z,1.70
2023-03-04T09:04:03.812Z,1.70
2023-03-04T09:06:31.494Z,1.70
2023-03-04T09:08:59.236Z,1.78
2023-03-04T09:11:27.230Z,1.80
2023-03-04T09:13:55.069Z,1.80
2023-03-04T09:16:23.040Z,1.80
2023-03-04T09:18:50.849Z,1.80
2023-03-04T09:21:18.660Z,1.80
2023-03-04T09:23:46.656Z,1.80
2023-03-04T09:26:25.825Z,1.80
2023-03-04T09:28:57.886Z,1.80
2023-03-04T09:31:27.458Z,1.80
2023-03-04T09:34:00.094Z,1.80
2023-03-04T09:36:27.962Z,1.80
2023-03-04T09:38:58.672Z,1.88
2023-03-04T09:41:43.777Z,1.90
2023-03-04T09:44:28.648Z,1.90
2023-03-04T09:47:02.647Z,1.90
2023-03-04T09:49:31.553Z,1.90
2023-03-04T09:52:24.109Z,1.90
2023-03-04T09:55:05.016Z,1.90
2023-03-04T09:57:45.464Z,1.90
2023-03-04T10:00:20.419Z,1.90
2023-03-04T10:03:10.212Z,1.90
2023-03-04T10:05:51.612Z,1.90
2023-03-04T10:08:53.662Z,1.96
2023-03-04T10:11:55.659Z,2.00
2023-03-04T10:14:23.315Z,2.00
2023-03-04T10:17:29.811Z,2.00
2023-03-04T10:20:13.858Z,2.00
2023-03-04T10:22:46.504Z,2.00
2023-03-04T10:25:25.322Z,1.96
2023-03-04T10:27:59.506Z,1.90
2023-03-04T10:31:23.075Z,1.90
2023-03-04T10:33:50.908Z,2.00
2023-03-04T10:36:34.606Z,2.00
2023-03-04T10:39:11.827Z,2.00
2023-03-04T10:41:45.780Z,2.08
2023-03-04T10:44:17.848Z,2.10
2023-03-04T10:46:48.947Z,2.10
2023-03-04T10:49:20.168Z,2.10
2023-03-04T10:51:53.259Z,2.02
2023-03-04T10:54:41.674Z,2.08
2023-03-04T10:57:23.525Z,2.10
2023-03-04T10:59:58.944Z,2.10
2023-03-04T11:02:36.975Z,2.10
2023-03-04T11:05:17.569Z,2.20
2023-03-04T11:07:57.303Z,2.20
2023-03-04T11:10:37.346Z,2.20
2023-03-04T11:13:11.109Z,2.20
2023-03-04T11:19:23.349Z,2.20
2023-03-04T11:21:52.978Z,2.20
2023-03-04T11:24:31.478Z,2.20
2023-03-04T11:27:18.534Z,2.30
2023-03-04T11:29:56.066Z,2.30
2023-03-04T11:32:40.512Z,2.38
2023-03-04T11:35:25.421Z,2.40
2023-03-04T11:38:21.254Z,2.40
2023-03-04T11:40:58.764Z,2.40
2023-03-04T11:43:38.622Z,2.42
2023-03-04T11:46:28.791Z,2.44
2023-03-04T11:49:27.567Z,2.40
2023-03-04T11:52:25.830Z,2.40
2023-03-04T11:55:08.667Z,2.44
2023-03-04T11:58:38.884Z,2.50
2023-03-04T12:01:18.827Z,2.52
2023-03-04T12:04:34.994Z,2.60
2023-03-04T12:07:23.823Z,2.60
2023-03-04T12:10:26.949Z,2.60
2023-03-04T12:13:40.625Z,2.60
2023-03-04T12:16:23.549Z,2.62
2023-03-04T12:19:24.543Z,2.60
2023-03-04T12:21:59.873Z,2.64
2023-03-04T12:24:49.086Z,2.70
2023-03-04T12:27:55.307Z,2.70
2023-03-04T12:31:03.245Z,2.70
2023-03-04T12:34:08.403Z,2.80
2023-03-04T12:36:51.118Z,2.80
2023-03-04T12:39:45.867Z,2.80
2023-03-04T12:42:58.256Z,2.80
2023-03-04T12:45:49.381Z,2.80
2023-03-04T12:48:42.867Z,2.80
2023-03-04T12:51:41.236Z,2.80
2023-03-04T12:54:37.190Z,2.90
2023-03-04T12:57:21.342Z,2.92
2023-03-04T13:00:11.724Z,3.00
2023-03-04T13:03:21.342Z,3.00
2023-03-04T13:06:04.143Z,3.10
2023-03-04T13:09:35.683Z,3.10
2023-03-04T13:12:22.451Z,3.10
2023-03-04T13:15:08.799Z,3.20
2023-03-04T13:17:49.214Z,3.20
2023-03-04T13:20:41.781Z,3.30
2023-03-04T13:23:09.592Z,3.38
2023-03-04T13:26:03.662Z,3.40
2023-03-04T13:28:40.144Z,3.40
2023-03-04T13:31:16.606Z,3.40
2023-03-04T13:33:56.622Z,3.40
2023-03-04T13:36:54.932Z,3.42
2023-03-04T13:39:27.483Z,3.50
2023-03-04T13:41:56.937Z,3.50
2023-03-04T13:44:55.220Z,3.54
2023-03-04T13:47:41.279Z,3.60
2023-03-04T13:50:31.754Z,3.60
2023-03-04T13:53:27.241Z,3.64
2023-03-04T13:56:25.636Z,3.70
2023-03-04T13:59:10.268Z,3.70
2023-03-04T14:01:43.725Z,3.70
2023-03-04T14:04:25.165Z,3.70
2023-03-04T14:06:58.200Z,3.70
2023-03-04T14:09:33.295Z,3.70
2023-03-04T14:12:05.357Z,3.70
2023-03-04T14:14:51.521Z,3.70
2023-03-04T14:17:25.699Z,3.70
2023-03-04T14:19:54.094Z,3.72
2023-03-04T14:22:31.925Z,3.78
2023-03-04T14:25:14.153Z,3.80
2023-03-04T14:27:42.107Z,3.80
2023-03-04T14:30:40.754Z,3.88
2023-03-04T14:33:18.076Z,3.90
2023-03-04T14:35:49.808Z,3.90
2023-03-04T14:38:32.543Z,3.90
2023-03-04T14:41:10.657Z,3.90
2023-03-04T14:43:49.950Z,3.90
2023-03-04T14:46:20.130Z,3.86
2023-03-04T14:48:53.017Z,3.82
2023-03-04T14:51:41.688Z,3.86
2023-03-04T14:55:00.899Z,3.90
2023-03-04T14:57:34.638Z,3.90
2023-03-04T15:00:21.795Z,3.90
2023-03-04T15:03:00.862Z,3.98
2023-03-04T15:05:35.497Z,4.00
2023-03-04T15:08:27.922Z,3.96
2023-03-04T15:11:00.195Z,4.00
2023-03-04T15:13:42.979Z,4.00
2023-03-04T15:16:14.318Z,4.00
2023-03-04T15:19:05.868Z,4.00
2023-03-04T15:21:41.427Z,4.00
2023-03-04T15:24:11.602Z,4.00
2023-03-04T15:26:42.330Z,4.00
2023-03-04T15:29:20.043Z,4.00
2023-03-04T15:31:48.740Z,4.00
2023-03-04T15:34:20.290Z,3.98
2023-03-04T15:36:51.512Z,3.92
2023-03-04T15:39:21.723Z,3.90
2023-03-04T15:41:50.645Z,3.90
2023-03-04T15:44:18.499Z,3.90
2023-03-04T15:46:46.177Z,4.00
2023-03-04T15:49:14.021Z,3.96
2023-03-04T15:51:42.071Z,3.96
2023-03-04T15:54:13.954Z,3.92
2023-03-04T15:56:41.905Z,3.90
2023-03-04T15:59:15.677Z,3.90
2023-03-04T16:01:43.722Z,3.90
2023-03-04T16:04:17.869Z,3.90
2023-03-04T16:06:50.008Z,3.98
2023-03-04T16:09:21.044Z,3.94
2023-03-04T16:11:48.861Z,3.98
2023-03-04T16:14:17.308Z,3.94
2023-03-04T16:16:46.853Z,3.90
2023-03-04T16:19:14.661Z,3.90
2023-03-04T16:21:42.567Z,3.90
2023-03-04T16:24:19.973Z,3.90
2023-03-04T16:26:48.487Z,3.90
2023-03-04T16:29:16.977Z,3.90
2023-03-04T16:31:44.676Z,3.90
2023-03-04T16:34:12.406Z,3.90
2023-03-04T16:36:40.213Z,3.90
2023-03-04T16:39:21.237Z,3.90
2023-03-04T16:41:49.603Z,3.90
2023-03-04T16:44:17.516Z,3.90
2023-03-04T16:46:45.270Z,3.90
2023-03-04T16:49:13.003Z,3.82
2023-03-04T16:51:46.738Z,3.80
2023-03-04T16:54:26.023Z,3.80
2023-03-04T16:56:54.061Z,3.80
2023-03-04T16:59:21.893Z,3.80
2023-03-04T17:01:49.795Z,3.80
2023-03-04T17:04:17.556Z,3.74
2023-03-04T17:06:45.319Z,3.70
2023-03-04T17:09:13.160Z,3.70
2023-03-04T17:11:41.046Z,3.70
2023-03-04T17:14:08.808Z,3.70
2023-03-04T17:16:36.989Z,3.70
2023-03-04T17:19:04.712Z,3.70
2023-03-04T17:21:32.490Z,3.70
2023-03-04T17:24:00.234Z,3.70
2023-03-04T17:26:27.998Z,3.70
2023-03-04T17:28:55.691Z,3.70
2023-03-04T17:31:23.608Z,3.70
2023-03-04T17:33:52.162Z,3.68
2023-03-04T17:36:20.102Z,3.60
2023-03-04T17:38:49.555Z,3.60
2023-03-04T17:41:18.782Z,3.60
2023-03-04T17:43:50.125Z,3.60
2023-03-04T17:46:21.889Z,3.60
2023-03-04T17:48:52.678Z,3.58
2023-03-04T17:51:20.688Z,3.50
2023-03-04T17:53:48.386Z,3.54
2023-03-04T17:56:16.139Z,3.56
2023-03-04T17:58:44.180Z,3.58
2023-03-04T18:01:19.363Z,3.58
2023-03-04T18:03:48.111Z,3.50
2023-03-04T18:06:17.174Z,3.50
2023-03-04T18:08:46.066Z,3.50
2023-03-04T18:11:14.228Z,3.50
2023-03-04T18:13:43.945Z,3.50
2023-03-04T18:16:16.132Z,3.52
2023-03-04T18:18:44.290Z,3.52
2023-03-04T18:21:13.529Z,3.58
2023-03-04T18:23:41.379Z,3.60
2023-03-04T18:26:09.327Z,3.60
2023-03-04T18:28:37.104Z,3.60
2023-03-04T18:31:05.684Z,3.60
2023-03-04T18:33:35.332Z,3.52
2023-03-04T18:36:07.767Z,3.50
2023-03-04T18:38:35.826Z,3.52
2023-03-04T18:41:11.225Z,3.50
2023-03-04T18:43:41.054Z,3.60
2023-03-04T18:46:26.709Z,3.60
2023-03-04T18:49:00.324Z,3.60
2023-03-04T18:51:28.112Z,3.70
2023-03-04T18:53:55.999Z,3.70
2023-03-04T18:56:37.688Z,3.70
2023-03-04T18:59:11.477Z,3.70
2023-03-04T19:01:39.697Z,3.60
2023-03-04T19:04:10.446Z,3.60
2023-03-04T19:06:38.828Z,3.60
2023-03-04T19:09:07.054Z,3.60
2023-03-04T19:11:34.880Z,3.60
2023-03-04T19:14:03.045Z,3.68
2023-03-04T19:16:30.790Z,3.68
2023-03-04T19:18:58.597Z,3.60
2023-03-04T19:21:26.338Z,3.60
2023-03-04T19:23:54.129Z,3.60
2023-03-04T19:26:22.019Z,3.60
2023-03-04T19:28:49.806Z,3.60
2023-03-04T19:31:17.563Z,3.60
2023-03-04T19:33:45.248Z,3.62
2023-03-04T19:36:13.092Z,3.60
2023-03-04T19:38:40.933Z,3.62
2023-03-04T19:41:15.068Z,3.60
2023-03-04T19:43:43.013Z,3.60
2023-03-04T19:46:11.102Z,3.60
2023-03-04T19:48:40.594Z,3.60
2023-03-04T19:51:20.714Z,3.60
2023-03-04T19:53:50.858Z,3.60
2023-03-04T19:56:20.612Z,3.60
2023-03-04T19:58:48.650Z,3.60
2023-03-04T20:01:28.482Z,3.48
2023-03-04T20:03:59.916Z,3.20
2023-03-04T20:06:28.806Z,2.98
2023-03-04T20:09:00.134Z,2.80
2023-03-04T20:11:29.401Z,2.70
2023-03-04T20:13:58.649Z,2.60
2023-03-04T20:16:27.940Z,2.60
2023-03-04T20:18:57.979Z,2.60
2023-03-04T20:21:34.179Z,2.60
2023-03-04T20:24:02.349Z,2.60
2023-03-04T20:26:32.196Z,2.60
2023-03-04T20:29:00.770Z,2.60
2023-03-04T20:31:32.566Z,2.60
2023-03-04T20:34:00.625Z,2.62
2023-03-04T20:36:30.334Z,2.70
2023-03-04T20:39:04.369Z,2.70
2023-03-04T20:41:36.045Z,2.70
2023-03-04T20:44:06.224Z,2.70
2023-03-04T20:46:41.226Z,2.70
2023-03-04T20:49:19.804Z,2.70
2023-03-04T20:51:48.634Z,2.70
2023-03-04T20:54:16.939Z,2.70
2023-03-04T20:56:44.958Z,2.70
2023-03-04T20:59:13.398Z,2.76
2023-03-04T21:01:44.368Z,2.80
2023-03-04T21:04:12.265Z,2.80
2023-03-04T21:06:40.635Z,2.80
2023-03-04T21:09:14.142Z,2.80
2023-03-04T21:11:43.050Z,2.80
2023-03-04T21:14:36.828Z,2.80
2023-03-04T21:17:05.144Z,2.80
2023-03-04T21:19:37.779Z,2.70
2023-03-04T21:22:06.244Z,2.70
2023-03-04T21:24:36.191Z,2.70
2023-03-04T21:27:04.717Z,2.70
2023-03-04T21:29:32.901Z,2.70
2023-03-04T21:32:22.452Z,2.74
2023-03-04T21:34:54.514Z,2.72
2023-03-04T21:37:24.846Z,2.80
2023-03-04T21:39:54.204Z,2.80
2023-03-04T21:42:22.032Z,2.74
2023-03-04T21:44:51.415Z,2.70
2023-03-04T21:47:21.253Z,2.70
2023-03-04T21:49:49.356Z,2.60
2023-03-04T21:52:20.195Z,2.60
2023-03-04T21:54:49.527Z,2.60
2023-03-04T21:57:19.474Z,2.60
2023-03-04T21:59:47.650Z,2.60
2023-03-04T22:02:19.308Z,2.52
2023-03-04T22:04:48.377Z,2.50
2023-03-04T22:07:16.840Z,2.40
2023-03-04T22:09:44.610Z,2.30
2023-03-04T22:12:12.720Z,2.26
2023-03-04T22:14:40.438Z,2.20
2023-03-04T22:17:08.246Z,2.20
2023-03-04T22:19:36.193Z,2.20
2023-03-04T22:22:03.995Z,2.14
2023-03-04T22:24:32.081Z,2.12
2023-03-04T22:26:59.995Z,2.10
2023-03-04T22:29:27.898Z,2.10
2023-03-04T22:31:55.674Z,2.10
2023-03-04T22:34:23.476Z,2.00
2023-03-04T22:36:51.267Z,2.00
2023-03-04T22:39:19.608Z,1.90
2023-03-04T22:41:47.730Z,1.90
2023-03-04T22:44:15.531Z,1.90
2023-03-04T22:46:43.965Z,1.84
2023-03-04T22:49:13.907Z,1.80
2023-03-04T22:51:44.419Z,1.80
2023-03-04T22:54:15.288Z,1.76
2023-03-04T22:56:44.002Z,1.70
2023-03-04T22:59:12.757Z,1.70
2023-03-04T23:01:41.453Z,1.62
2023-03-04T23:04:09.273Z,1.60
2023-03-04T23:06:37.672Z,1.62
2023-03-04T23:09:06.199Z,1.60
2023-03-04T23:11:35.850Z,1.60
2023-03-04T23:14:07.022Z,1.60
2023-03-04T23:16:39.333Z,1.60
2023-03-04T23:19:07.945Z,1.60
2023-03-04T23:21:37.580Z,1.52
2023-03-04T23:24:08.322Z,1.50
2023-03-04T23:26:39.183Z,1.50
2023-03-04T23:29:13.962Z,1.50
2023-03-04T23:31:42.639Z,1.48
2023-03-04T23:34:11.398Z,1.40
2023-03-04T23:36:39.222Z,1.50
2023-03-04T23:39:08.163Z,1.48
2023-03-04T23:41:36.086Z,1.50
2023-03-04T23:44:04.559Z,1.50
2023-03-04T23:46:32.968Z,1.50
2023-03-04T23:49:00.694Z,1.50
2023-03-04T23:51:29.340Z,1.50
2023-03-04T23:53:58.475Z,1.50
2023-03-04T23:56:31.041Z,1.50
2023-03-04T23:59:00.595Z,1.50
